Time;durP1;ratioP1;P1;durP2;ratioP2;P2;SDS_P1;SDS_P2;PMS_P1;PMS_P2;Temp;Humidity;BMP_temperature;BMP_pressure;BME280_temperature;BME280_humidity;BME280_pressure;Samples;Min_cycle;Max_cycle;Signal;HPM_P1;HPM_P2
2021/10/18 00:00:39;;;;;;;35.58;17.08;;;;;;;;;;6147851;23;20415;-58
2021/10/18 00:03:05;;;;;;;7.93;5.15;;;;;;;;;;6150098;23;20030;-58
2021/10/18 00:05:32;;;;;;;6.68;5.07;;;;;;;;;;6124892;23;20015;-58
2021/10/18 00:07:58;;;;;;;7.07;4.88;;;;;;;;;;6150150;23;20012;-58
2021/10/18 00:10:23;;;;;;;9.93;6.05;;;;;;;;;;6152431;23;20367;-57
2021/10/18 00:12:49;;;;;;;29.70;13.07;;;;;;;;;;6150772;23;20005;-58
2021/10/18 00:15:17;;;;;;;78.68;27.13;;;;;;;;;;6151376;23;20323;-58
2021/10/18 00:17:43;;;;;;;17.58;8.85;;;;;;;;;;6126215;23;20036;-58
2021/10/18 00:20:11;;;;;;;6.75;4.65;;;;;;;;;;6146585;23;20006;-57
2021/10/18 00:22:37;;;;;;;32.22;11.90;;;;;;;;;;6149798;23;20012;-58
2021/10/18 00:25:03;;;;;;;58.33;20.33;;;;;;;;;;6149880;23;20040;-58
2021/10/18 00:27:28;;;;;;;98.53;28.70;;;;;;;;;;6149512;23;20005;-58
2021/10/18 00:29:55;;;;;;;11.18;6.30;;;;;;;;;;6126058;23;20462;-57
2021/10/18 00:32:20;;;;;;;8.65;5.15;;;;;;;;;;6149608;23;20451;-57
2021/10/18 00:34:46;;;;;;;18.65;8.43;;;;;;;;;;6151293;23;20052;-57
2021/10/18 00:37:13;;;;;;;14.13;7.90;;;;;;;;;;6152277;23;20010;-58
2021/10/18 00:39:38;;;;;;;11.25;6.60;;;;;;;;;;6150797;23;20001;-58
2021/10/18 00:42:04;;;;;;;7.90;5.40;;;;;;;;;;6151800;23;20458;-57
2021/10/18 00:44:33;;;;;;;8.43;4.78;;;;;;;;;;6151240;23;20420;-58
2021/10/18 00:46:59;;;;;;;8.70;4.97;;;;;;;;;;6152275;23;20001;-57
2021/10/18 00:49:27;;;;;;;6.65;5.30;;;;;;;;;;6149663;23;20394;-57
2021/10/18 00:51:53;;;;;;;9.90;6.25;;;;;;;;;;6151560;23;20001;-58
2021/10/18 00:54:19;;;;;;;8.27;5.25;;;;;;;;;;6151705;23;20425;-58
2021/10/18 00:56:45;;;;;;;10.32;6.07;;;;;;;;;;6152125;23;20008;-58
2021/10/18 00:59:11;;;;;;;10.57;7.57;;;;;;;;;;6151941;23;20021;-58
2021/10/18 01:01:38;;;;;;;6.43;5.28;;;;;;;;;;6151479;23;20072;-57
2021/10/18 01:04:04;;;;;;;9.27;6.10;;;;;;;;;;6149866;23;20006;-58
2021/10/18 01:06:30;;;;;;;10.23;6.13;;;;;;;;;;6148439;23;20323;-57
2021/10/18 01:08:56;;;;;;;5.80;5.03;;;;;;;;;;6152209;23;20012;-58
2021/10/18 01:11:22;;;;;;;7.55;5.13;;;;;;;;;;6148935;23;20037;-57
2021/10/18 01:13:48;;;;;;;8.30;5.63;;;;;;;;;;6151264;23;20002;-58
2021/10/18 01:16:15;;;;;;;9.13;5.50;;;;;;;;;;6151143;23;20084;-58
2021/10/18 01:18:41;;;;;;;6.40;5.30;;;;;;;;;;6149881;23;20005;-58
2021/10/18 01:21:07;;;;;;;7.00;4.60;;;;;;;;;;6152051;23;20001;-58
2021/10/18 01:23:34;;;;;;;6.70;4.70;;;;;;;;;;6151125;23;20006;-58
2021/10/18 01:26:00;;;;;;;6.60;4.55;;;;;;;;;;6150073;23;20001;-58
2021/10/18 01:28:27;;;;;;;7.57;4.82;;;;;;;;;;6125520;23;20020;-58
2021/10/18 01:30:52;;;;;;;7.63;4.82;;;;;;;;;;6151320;23;20033;-58
2021/10/18 01:33:18;;;;;;;7.40;4.63;;;;;;;;;;6125427;23;20009;-58
2021/10/18 01:35:43;;;;;;;6.53;4.72;;;;;;;;;;6150714;23;20009;-58
2021/10/18 01:38:10;;;;;;;7.15;4.82;;;;;;;;;;6149115;23;20355;-58
2021/10/18 01:40:35;;;;;;;8.88;4.68;;;;;;;;;;6126498;23;20010;-57
2021/10/18 01:43:01;;;;;;;8.40;5.13;;;;;;;;;;6148870;23;20490;-58
2021/10/18 01:45:27;;;;;;;6.10;4.57;;;;;;;;;;6124571;23;20087;-57
2021/10/18 01:47:54;;;;;;;7.03;5.13;;;;;;;;;;6149285;23;20292;-58
2021/10/18 01:50:26;;;;;;;6.95;5.22;;;;;;;;;;6150421;23;20012;-58
2021/10/18 01:52:56;;;;;;;8.00;6.13;;;;;;;;;;6151103;23;20006;-57
2021/10/18 01:55:22;;;;;;;9.77;6.50;;;;;;;;;;6152505;23;20043;-57
2021/10/18 01:57:49;;;;;;;11.40;6.00;;;;;;;;;;6125123;23;20012;-58
2021/10/18 02:00:15;;;;;;;7.60;5.13;;;;;;;;;;6151640;23;20013;-58
2021/10/18 02:02:41;;;;;;;5.90;5.28;;;;;;;;;;6150669;23;20032;-58
2021/10/18 02:05:06;;;;;;;7.05;5.22;;;;;;;;;;6148921;23;20032;-58
2021/10/18 02:07:32;;;;;;;8.00;5.47;;;;;;;;;;6149273;23;20423;-58
2021/10/18 02:09:59;;;;;;;7.57;4.95;;;;;;;;;;6149486;23;20423;-58
2021/10/18 02:12:25;;;;;;;8.85;5.15;;;;;;;;;;6152286;23;20316;-57
2021/10/18 02:14:51;;;;;;;5.70;4.80;;;;;;;;;;6151949;23;20005;-58
2021/10/18 02:17:18;;;;;;;8.07;5.40;;;;;;;;;;6152182;23;20059;-58
2021/10/18 02:19:43;;;;;;;10.02;5.05;;;;;;;;;;6148146;23;20038;-58
2021/10/18 02:22:09;;;;;;;7.20;5.20;;;;;;;;;;6151480;23;20001;-58
2021/10/18 02:24:35;;;;;;;6.95;5.25;;;;;;;;;;6149676;23;20005;-58
2021/10/18 02:27:00;;;;;;;8.45;5.38;;;;;;;;;;6152753;23;20011;-57
2021/10/18 02:29:25;;;;;;;8.50;5.70;;;;;;;;;;6150226;23;20056;-57
2021/10/18 02:31:52;;;;;;;8.32;5.38;;;;;;;;;;6146171;23;20419;-58
2021/10/18 02:34:17;;;;;;;9.50;5.70;;;;;;;;;;6147010;23;20013;-57
2021/10/18 02:36:42;;;;;;;9.82;5.60;;;;;;;;;;6147673;23;20308;-57
2021/10/18 02:39:08;;;;;;;8.93;5.78;;;;;;;;;;6148437;23;20006;-57
2021/10/18 02:41:33;;;;;;;9.52;5.57;;;;;;;;;;6147980;23;20016;-58
2021/10/18 02:43:58;;;;;;;7.90;5.95;;;;;;;;;;6148551;23;20076;-58
2021/10/18 02:46:25;;;;;;;8.25;5.78;;;;;;;;;;6153302;23;20009;-58
2021/10/18 02:48:51;;;;;;;11.88;6.47;;;;;;;;;;6126589;23;20040;-58
2021/10/18 02:51:17;;;;;;;8.18;6.47;;;;;;;;;;6152715;23;20309;-58
2021/10/18 02:53:42;;;;;;;11.25;5.97;;;;;;;;;;6153609;23;20004;-57
2021/10/18 02:56:07;;;;;;;8.55;6.10;;;;;;;;;;6154841;23;20005;-57
2021/10/18 02:58:33;;;;;;;8.40;6.18;;;;;;;;;;6152163;23;20047;-58
2021/10/18 03:00:59;;;;;;;11.07;5.80;;;;;;;;;;6152791;23;20005;-58
2021/10/18 03:03:25;;;;;;;9.95;6.13;;;;;;;;;;6151246;23;20110;-58
2021/10/18 03:05:51;;;;;;;8.63;6.03;;;;;;;;;;6153190;23;20415;-58
2021/10/18 03:08:16;;;;;;;7.57;5.68;;;;;;;;;;6151537;23;20009;-57
2021/10/18 03:10:41;;;;;;;9.48;5.82;;;;;;;;;;6153595;23;20099;-58
2021/10/18 03:13:08;;;;;;;12.15;6.05;;;;;;;;;;6153465;23;20025;-58
2021/10/18 03:15:33;;;;;;;8.83;6.20;;;;;;;;;;6150997;23;20008;-58
2021/10/18 03:17:59;;;;;;;11.48;7.50;;;;;;;;;;6153203;23;20625;-58
2021/10/18 03:20:25;;;;;;;9.38;6.43;;;;;;;;;;6151763;23;20001;-57
2021/10/18 03:22:53;;;;;;;9.13;6.13;;;;;;;;;;6152151;23;20378;-58
2021/10/18 03:25:19;;;;;;;;;;;;;;;;;;6123459;23;20113;-57
2021/10/18 03:27:46;;;;;;;7.55;5.97;;;;;;;;;;6152271;23;19909;-58
2021/10/18 03:30:12;;;;;;;14.40;6.35;;;;;;;;;;6152459;23;20008;-58
2021/10/18 03:32:38;;;;;;;12.35;7.95;;;;;;;;;;6150896;23;20005;-58
2021/10/18 03:35:05;;;;;;;9.40;6.35;;;;;;;;;;6152077;23;20006;-58
2021/10/18 03:37:32;;;;;;;20.38;8.93;;;;;;;;;;6124633;23;20005;-58
2021/10/18 03:39:58;;;;;;;27.80;12.27;;;;;;;;;;6149162;23;20091;-58
2021/10/18 03:42:23;;;;;;;43.42;12.57;;;;;;;;;;6151912;23;20602;-58
2021/10/18 03:44:48;;;;;;;13.15;7.32;;;;;;;;;;6151825;23;20048;-57
2021/10/18 03:47:16;;;;;;;11.68;6.50;;;;;;;;;;6122529;23;20097;-58
2021/10/18 03:49:43;;;;;;;24.80;11.10;;;;;;;;;;6150729;23;20029;-57
2021/10/18 03:52:09;;;;;;;18.40;9.63;;;;;;;;;;6151241;23;20332;-58
2021/10/18 03:54:34;;;;;;;10.05;6.97;;;;;;;;;;6150433;23;20973;-58
2021/10/18 03:57:03;;;;;;;10.52;7.03;;;;;;;;;;6127048;23;20002;-57
2021/10/18 03:59:28;;;;;;;9.77;6.90;;;;;;;;;;6153086;23;20487;-58
2021/10/18 04:01:54;;;;;;;12.43;6.78;;;;;;;;;;6151158;23;20008;-57
2021/10/18 04:04:20;;;;;;;11.98;7.10;;;;;;;;;;6152256;23;20277;-58
2021/10/18 04:06:45;;;;;;;11.80;8.32;;;;;;;;;;6153282;23;20001;-58
2021/10/18 04:09:10;;;;;;;14.98;9.90;;;;;;;;;;6126220;23;20423;-58
2021/10/18 04:11:39;;;;;;;16.60;10.90;;;;;;;;;;6151960;23;20299;-58
2021/10/18 04:14:06;;;;;;;30.60;7.55;;;;;;;;;;6149077;23;20051;-58
2021/10/18 04:16:33;;;;;;;12.05;7.13;;;;;;;;;;6153079;23;20005;-58
2021/10/18 04:19:00;;;;;;;10.48;6.88;;;;;;;;;;6148929;23;20064;-58
2021/10/18 04:21:27;;;;;;;16.23;6.13;;;;;;;;;;6148479;23;20335;-58
2021/10/18 04:23:52;;;;;;;8.15;5.80;;;;;;;;;;6151781;23;20016;-58
2021/10/18 04:26:18;;;;;;;8.98;5.95;;;;;;;;;;6152042;23;20001;-58
2021/10/18 04:28:44;;;;;;;7.47;5.70;;;;;;;;;;6150972;23;20009;-57
2021/10/18 04:31:10;;;;;;;8.95;6.47;;;;;;;;;;6152314;23;20005;-58
2021/10/18 04:33:35;;;;;;;26.90;9.75;;;;;;;;;;6122449;23;20005;-57
2021/10/18 04:36:00;;;;;;;9.75;6.15;;;;;;;;;;6150915;23;20371;-57
2021/10/18 04:38:27;;;;;;;8.60;6.22;;;;;;;;;;6152899;23;20009;-58
2021/10/18 04:40:52;;;;;;;23.10;11.20;;;;;;;;;;6124355;23;20008;-58
2021/10/18 04:43:19;;;;;;;11.13;7.35;;;;;;;;;;6151261;23;20328;-58
2021/10/18 04:45:45;;;;;;;15.32;6.43;;;;;;;;;;6151527;23;20036;-59
2021/10/18 04:48:10;;;;;;;15.85;9.05;;;;;;;;;;6124216;23;20017;-57
2021/10/18 04:50:36;;;;;;;13.65;8.43;;;;;;;;;;6149043;23;20139;-57
2021/10/18 04:53:01;;;;;;;11.15;6.70;;;;;;;;;;6124239;23;20450;-58
2021/10/18 04:55:27;;;;;;;40.67;18.15;;;;;;;;;;6124022;23;20415;-59
2021/10/18 04:57:57;;;;;;;23.60;11.27;;;;;;;;;;6149866;23;20002;-58
2021/10/18 05:00:26;;;;;;;40.58;17.80;;;;;;;;;;6152999;23;20005;-59
2021/10/18 05:02:52;;;;;;;14.27;6.93;;;;;;;;;;6151163;23;20080;-59
2021/10/18 05:05:18;;;;;;;8.82;6.55;;;;;;;;;;6150710;23;20035;-59
2021/10/18 05:07:44;;;;;;;9.68;6.75;;;;;;;;;;6150783;23;20229;-59
2021/10/18 05:10:11;;;;;;;11.43;7.03;;;;;;;;;;6147810;23;20574;-59
2021/10/18 05:12:37;;;;;;;11.75;6.70;;;;;;;;;;6150185;23;20081;-59
2021/10/18 05:15:04;;;;;;;36.47;14.88;;;;;;;;;;6150469;23;20037;-58
2021/10/18 05:17:31;;;;;;;16.30;7.85;;;;;;;;;;6124900;23;20144;-59
2021/10/18 05:19:57;;;;;;;14.77;7.85;;;;;;;;;;6149653;23;20009;-59
2021/10/18 05:22:22;;;;;;;34.22;13.98;;;;;;;;;;6152496;23;20012;-58
2021/10/18 05:24:48;;;;;;;21.13;10.02;;;;;;;;;;6150347;23;20419;-59
2021/10/18 05:27:13;;;;;;;13.20;8.35;;;;;;;;;;6152590;23;20009;-58
2021/10/18 05:29:39;;;;;;;13.80;8.57;;;;;;;;;;6152576;23;20085;-59
2021/10/18 05:32:05;;;;;;;14.73;8.23;;;;;;;;;;6152452;23;20006;-59
2021/10/18 05:34:31;;;;;;;8.43;6.30;;;;;;;;;;6150598;23;20052;-59
2021/10/18 05:36:57;;;;;;;8.53;6.53;;;;;;;;;;6150682;23;20351;-59
2021/10/18 05:39:22;;;;;;;12.88;7.10;;;;;;;;;;6150168;23;20237;-59
2021/10/18 05:41:48;;;;;;;25.33;11.85;;;;;;;;;;6149774;23;20005;-59
2021/10/18 05:44:14;;;;;;;21.50;10.05;;;;;;;;;;6151394;23;20192;-58
2021/10/18 05:46:40;;;;;;;31.27;11.27;;;;;;;;;;6152734;23;20335;-59
2021/10/18 05:49:06;;;;;;;30.48;11.18;;;;;;;;;;6152474;23;20002;-58
2021/10/18 05:51:31;;;;;;;41.50;10.70;;;;;;;;;;6151689;23;20036;-59
2021/10/18 05:53:59;;;;;;;9.32;5.93;;;;;;;;;;6124902;23;20001;-59
2021/10/18 05:56:25;;;;;;;11.73;6.30;;;;;;;;;;6151713;23;20010;-59
2021/10/18 05:58:51;;;;;;;15.63;8.20;;;;;;;;;;6151074;23;20014;-60
2021/10/18 06:01:17;;;;;;;15.20;8.07;;;;;;;;;;6150392;23;20001;-59
2021/10/18 06:03:43;;;;;;;24.75;10.88;;;;;;;;;;6147451;23;20001;-59
2021/10/18 06:06:12;;;;;;;14.63;8.27;;;;;;;;;;6146022;23;20077;-59
2021/10/18 06:08:38;;;;;;;17.88;8.95;;;;;;;;;;6145435;23;20005;-60
2021/10/18 06:11:04;;;;;;;25.38;11.60;;;;;;;;;;6149992;23;20048;-59
2021/10/18 06:13:30;;;;;;;10.15;6.00;;;;;;;;;;6146754;23;20068;-59
2021/10/18 06:15:55;;;;;;;9.52;6.68;;;;;;;;;;6147329;23;20080;-59
2021/10/18 06:18:22;;;;;;;9.45;6.47;;;;;;;;;;6149487;23;20381;-59
2021/10/18 06:20:50;;;;;;;10.73;6.67;;;;;;;;;;6147247;23;20479;-58
2021/10/18 06:23:18;;;;;;;13.02;7.22;;;;;;;;;;6153051;23;20009;-58
2021/10/18 06:25:45;;;;;;;10.32;7.18;;;;;;;;;;6151908;23;20010;-59
2021/10/18 06:28:11;;;;;;;12.23;6.85;;;;;;;;;;6124662;23;20043;-58
2021/10/18 06:30:37;;;;;;;12.25;7.03;;;;;;;;;;6126843;23;20005;-58
2021/10/18 06:33:03;;;;;;;16.92;7.15;;;;;;;;;;6151911;23;20016;-58
2021/10/18 06:35:33;;;;;;;10.07;7.00;;;;;;;;;;6150683;23;20001;-58
2021/10/18 06:37:58;;;;;;;10.35;6.93;;;;;;;;;;6150907;23;20044;-59
2021/10/18 06:40:25;;;;;;;11.60;7.20;;;;;;;;;;6152873;23;20428;-59
2021/10/18 06:42:51;;;;;;;21.00;7.47;;;;;;;;;;6151212;23;20087;-59
2021/10/18 06:45:18;;;;;;;12.00;6.53;;;;;;;;;;6149337;23;20049;-59
2021/10/18 06:47:43;;;;;;;10.07;6.85;;;;;;;;;;6152228;23;20005;-59
2021/10/18 06:50:09;;;;;;;10.55;6.70;;;;;;;;;;6151375;23;20107;-58
2021/10/18 06:52:38;;;;;;;11.25;6.63;;;;;;;;;;6125696;23;20009;-59
2021/10/18 06:55:05;;;;;;;11.05;7.05;;;;;;;;;;6151005;23;19998;-58
2021/10/18 06:57:32;;;;;;;11.18;6.75;;;;;;;;;;6151041;23;20435;-58
2021/10/18 06:59:58;;;;;;;9.80;6.68;;;;;;;;;;6148087;23;20021;-59
2021/10/18 07:02:26;;;;;;;10.05;6.45;;;;;;;;;;6147473;23;20044;-58
2021/10/18 07:04:53;;;;;;;10.70;6.38;;;;;;;;;;6150599;23;20001;-58
2021/10/18 07:07:21;;;;;;;9.85;7.07;;;;;;;;;;6151106;23;20112;-58
2021/10/18 07:09:46;;;;;;;14.75;8.63;;;;;;;;;;6150994;23;20012;-58
2021/10/18 07:12:12;;;;;;;12.18;8.30;;;;;;;;;;6125108;23;19999;-58
2021/10/18 07:14:39;;;;;;;11.27;7.45;;;;;;;;;;6151085;23;20001;-58
2021/10/18 07:17:04;;;;;;;11.73;7.63;;;;;;;;;;6147246;23;20006;-58
2021/10/18 07:19:30;;;;;;;12.50;7.43;;;;;;;;;;6150516;23;20012;-59
2021/10/18 07:21:55;;;;;;;12.32;7.38;;;;;;;;;;6126142;23;20308;-59
2021/10/18 07:24:21;;;;;;;11.68;7.07;;;;;;;;;;6151190;23;20052;-58
2021/10/18 07:26:50;;;;;;;14.55;8.23;;;;;;;;;;6151814;23;20354;-58
2021/10/18 07:29:21;;;;;;;11.68;7.78;;;;;;;;;;6124758;23;20009;-59
2021/10/18 07:31:47;;;;;;;11.65;7.63;;;;;;;;;;6153400;23;20446;-59
2021/10/18 07:34:15;;;;;;;12.40;7.63;;;;;;;;;;6152355;23;20006;-58
2021/10/18 07:36:48;;;;;;;;;;;;;;;;;;6151957;23;20012;-59
2021/10/18 07:39:17;;;;;;;13.70;7.35;;;;;;;;;;6124487;23;20377;-58
2021/10/18 07:41:44;;;;;;;15.75;8.50;;;;;;;;;;6152094;23;20005;-58
2021/10/18 07:44:10;;;;;;;13.97;9.00;;;;;;;;;;6149495;23;20624;-59
2021/10/18 07:46:36;;;;;;;15.37;9.17;;;;;;;;;;6151503;23;20009;-58
2021/10/18 07:49:02;;;;;;;17.05;9.05;;;;;;;;;;6151906;23;20565;-59
2021/10/18 07:51:28;;;;;;;17.45;9.18;;;;;;;;;;6152308;23;20385;-59
2021/10/18 07:53:53;;;;;;;103.22;34.03;;;;;;;;;;6123999;23;20431;-59
2021/10/18 07:56:19;;;;;;;20.02;10.27;;;;;;;;;;6149416;23;20516;-59
2021/10/18 07:58:44;;;;;;;30.10;12.57;;;;;;;;;;6124187;23;20013;-59
2021/10/18 08:01:11;;;;;;;77.78;29.10;;;;;;;;;;6152426;23;20005;-59
2021/10/18 08:03:36;;;;;;;27.50;12.40;;;;;;;;;;6152391;23;20087;-58
2021/10/18 08:06:02;;;;;;;18.52;11.18;;;;;;;;;;6153817;23;20010;-59
2021/10/18 08:08:33;;;;;;;18.88;10.32;;;;;;;;;;6153452;23;20067;-58
2021/10/18 08:10:59;;;;;;;24.92;10.70;;;;;;;;;;6152692;23;20002;-58
2021/10/18 08:13:25;;;;;;;19.42;10.65;;;;;;;;;;6153130;23;20005;-59
2021/10/18 08:15:50;;;;;;;30.85;11.25;;;;;;;;;;6153490;23;20080;-59
2021/10/18 08:18:15;;;;;;;18.50;11.18;;;;;;;;;;6152291;23;20084;-59
2021/10/18 08:20:43;;;;;;;58.75;13.55;;;;;;;;;;6152741;23;20005;-59
2021/10/18 08:23:09;;;;;;;18.05;10.38;;;;;;;;;;6153451;23;20008;-58
2021/10/18 08:25:34;;;;;;;16.63;9.77;;;;;;;;;;6153667;23;20322;-58
2021/10/18 08:27:59;;;;;;;17.75;10.90;;;;;;;;;;6151797;23;20037;-59
2021/10/18 08:30:25;;;;;;;24.67;12.65;;;;;;;;;;6121760;23;20010;-59
2021/10/18 08:32:50;;;;;;;43.08;13.68;;;;;;;;;;6147306;23;20044;-59
2021/10/18 08:35:16;;;;;;;20.50;11.00;;;;;;;;;;6137811;23;20016;-59
2021/10/18 08:40:31;;;;;;;19.13;10.63;;;;;;;;;;6146490;23;20324;-58
2021/10/18 08:45:25;;;;;;;19.15;11.50;;;;;;;;;;6153707;23;20052;-59
2021/10/18 08:47:54;;;;;;;19.17;11.88;;;;;;;;;;6145629;23;20029;-59
2021/10/18 08:50:21;;;;;;;19.48;11.60;;;;;;;;;;6146322;23;20005;-58
2021/10/18 08:52:49;;;;;;;21.00;12.37;;;;;;;;;;6144958;23;20084;-59
2021/10/18 08:55:15;;;;;;;20.65;11.85;;;;;;;;;;6145122;23;20671;-59
2021/10/18 08:57:40;;;;;;;23.40;12.73;;;;;;;;;;6144260;23;20035;-59
2021/10/18 09:00:07;;;;;;;21.90;13.30;;;;;;;;;;6118977;23;20009;-59
2021/10/18 09:02:37;;;;;;;27.02;15.02;;;;;;;;;;6144679;23;20121;-59
2021/10/18 09:05:09;;;;;;;38.13;16.35;;;;;;;;;;6143744;23;20009;-59
2021/10/18 09:07:36;;;;;;;31.52;16.45;;;;;;;;;;6143507;23;20052;-59
2021/10/18 09:10:11;;;;;;;27.77;15.02;;;;;;;;;;6144771;23;20029;-58
2021/10/18 09:12:39;;;;;;;27.45;16.33;;;;;;;;;;6145221;23;20006;-58
2021/10/18 09:15:25;;;;;;;34.65;18.92;;;;;;;;;;6118206;23;20006;-58
2021/10/18 09:17:58;;;;;;;27.08;15.27;;;;;;;;;;6145603;23;20331;-59
2021/10/18 09:20:35;;;;;;;24.30;15.68;;;;;;;;;;6116813;23;20391;-59
2021/10/18 09:23:26;;;;;;;29.55;17.23;;;;;;;;;;6145147;23;20016;-59
2021/10/18 09:25:58;;;;;;;25.25;15.52;;;;;;;;;;6144531;23;20435;-59
2021/10/18 09:28:26;;;;;;;25.38;15.48;;;;;;;;;;6143649;23;20012;-61
2021/10/18 09:30:52;;;;;;;26.75;15.65;;;;;;;;;;6144405;23;20013;-58
2021/10/18 09:33:39;;;;;;;25.90;15.43;;;;;;;;;;6144409;23;20411;-59
2021/10/18 09:36:11;;;;;;;28.27;16.13;;;;;;;;;;6144475;23;20005;-59
2021/10/18 09:38:36;;;;;;;25.50;14.73;;;;;;;;;;6143117;23;20012;-58
2021/10/18 09:41:03;;;;;;;28.33;15.57;;;;;;;;;;6147418;23;20005;-58
2021/10/18 09:43:35;;;;;;;27.23;15.07;;;;;;;;;;6146511;23;20010;-60
2021/10/18 10:53:28;;;;;;;30.55;18.27;;;;;;;;;;6150534;23;20009;-59
2021/10/18 10:55:56;;;;;;;30.10;17.33;;;;;;;;;;6149608;23;20009;-58
2021/10/18 10:58:39;;;;;;;28.50;16.90;;;;;;;;;;6148756;23;20018;-58
2021/10/18 11:01:06;;;;;;;31.05;17.95;;;;;;;;;;6149239;23;20354;-59
2021/10/18 11:03:41;;;;;;;29.98;17.02;;;;;;;;;;6147913;23;20012;-58
2021/10/18 11:06:13;;;;;;;31.35;17.63;;;;;;;;;;6142487;23;20032;-58
2021/10/18 11:08:39;;;;;;;29.73;18.55;;;;;;;;;;6144221;23;20013;-59
2021/10/18 11:11:13;;;;;;;32.35;18.25;;;;;;;;;;6145866;23;20009;-58
2021/10/18 11:13:54;;;;;;;30.50;17.95;;;;;;;;;;6146776;23;20478;-59
2021/10/18 11:16:22;;;;;;;29.83;17.85;;;;;;;;;;6147676;23;20010;-59
2021/10/18 11:18:54;;;;;;;29.52;17.48;;;;;;;;;;6145329;23;20009;-58
2021/10/18 11:21:22;;;;;;;29.15;17.27;;;;;;;;;;6147980;23;20005;-58
2021/10/18 11:23:59;;;;;;;27.13;17.13;;;;;;;;;;6147887;23;20331;-59
2021/10/18 11:26:27;;;;;;;30.90;19.02;;;;;;;;;;6123009;23;20435;-59
2021/10/18 11:28:58;;;;;;;29.75;18.27;;;;;;;;;;6147722;23;20016;-58
2021/10/18 11:31:31;;;;;;;27.75;17.27;;;;;;;;;;6149040;23;20009;-58
2021/10/18 11:34:10;;;;;;;26.67;16.73;;;;;;;;;;6147781;23;20029;-58
2021/10/18 11:36:42;;;;;;;30.95;18.45;;;;;;;;;;6148384;23;20005;-58
2021/10/18 11:39:11;;;;;;;27.75;16.60;;;;;;;;;;6149247;23;20490;-58
2021/10/18 11:41:58;;;;;;;26.90;17.27;;;;;;;;;;6150265;23;20039;-58
2021/10/18 11:44:48;;;;;;;25.08;16.05;;;;;;;;;;6146980;23;20089;-58
2021/10/18 11:47:39;;;;;;;27.02;16.10;;;;;;;;;;6147941;23;20328;-59
2021/10/18 11:50:07;;;;;;;23.90;15.98;;;;;;;;;;6141573;23;20005;-59
2021/10/18 11:52:32;;;;;;;;;;;;;;;;;;6147208;23;20013;-58
2021/10/18 11:54:58;;;;;;;24.05;15.77;;;;;;;;;;6148419;23;20054;-59
2021/10/18 11:57:27;;;;;;;22.65;15.07;;;;;;;;;;6148233;23;20387;-58
2021/10/18 11:59:53;;;;;;;22.95;15.60;;;;;;;;;;6147873;23;20028;-59
2021/10/18 12:02:23;;;;;;;22.67;15.73;;;;;;;;;;6146863;23;20033;-58
2021/10/18 12:05:00;;;;;;;21.65;15.13;;;;;;;;;;6148077;23;20031;-58
2021/10/18 12:07:41;;;;;;;21.20;14.23;;;;;;;;;;6143848;23;20334;-58
2021/10/18 12:10:23;;;;;;;22.02;14.73;;;;;;;;;;6145906;23;20431;-58
2021/10/18 12:13:10;;;;;;;20.98;14.50;;;;;;;;;;6148770;23;20016;-58
2021/10/18 12:15:57;;;;;;;20.00;13.98;;;;;;;;;;6148268;23;20420;-59
2021/10/18 12:18:25;;;;;;;21.02;15.00;;;;;;;;;;6146338;23;20021;-58
2021/10/18 12:20:54;;;;;;;20.10;13.88;;;;;;;;;;6145022;23;20016;-58
2021/10/18 12:23:47;;;;;;;20.33;14.35;;;;;;;;;;6146219;23;20017;-59
2021/10/18 12:26:22;;;;;;;19.50;14.00;;;;;;;;;;6132236;23;20009;-58
2021/10/18 12:29:11;;;;;;;19.13;14.27;;;;;;;;;;6147082;23;20005;-58
2021/10/18 12:31:43;;;;;;;17.17;12.90;;;;;;;;;;6147713;23;20014;-58
2021/10/18 12:34:15;;;;;;;17.83;13.25;;;;;;;;;;6146559;23;20005;-58
2021/10/18 12:37:00;;;;;;;17.77;13.38;;;;;;;;;;6146437;23;20055;-58
2021/10/18 12:39:41;;;;;;;17.50;12.75;;;;;;;;;;6146884;23;20005;-58
2021/10/18 12:42:11;;;;;;;18.80;13.18;;;;;;;;;;6120534;23;20516;-59
2021/10/18 12:44:43;;;;;;;17.17;12.48;;;;;;;;;;6144107;23;20084;-59
2021/10/18 12:47:17;;;;;;;17.63;12.90;;;;;;;;;;6143215;23;20140;-58
2021/10/18 12:49:53;;;;;;;17.58;12.30;;;;;;;;;;6142352;23;20439;-59
2021/10/18 12:52:27;;;;;;;17.13;11.68;;;;;;;;;;6143362;23;20382;-58
2021/10/18 12:54:53;;;;;;;16.50;12.40;;;;;;;;;;6145277;23;20025;-58
2021/10/18 12:57:23;;;;;;;16.70;12.00;;;;;;;;;;6119985;23;20111;-59
2021/10/18 13:00:09;;;;;;;17.50;12.73;;;;;;;;;;6148031;23;20021;-58
2021/10/18 13:02:37;;;;;;;16.10;12.13;;;;;;;;;;6149073;23;20020;-58
2021/10/18 13:05:05;;;;;;;;;;;;;;;;;;6149450;23;20044;-58
2021/10/18 13:07:33;;;;;;;14.77;10.82;;;;;;;;;;6149069;23;19912;-58
2021/10/18 13:09:59;;;;;;;15.88;11.88;;;;;;;;;;6148349;23;20009;-59
2021/10/18 13:12:28;;;;;;;14.60;11.75;;;;;;;;;;6147393;23;20141;-59
2021/10/18 13:14:54;;;;;;;19.33;12.15;;;;;;;;;;6145837;23;20073;-59
2021/10/18 13:17:21;;;;;;;14.57;11.57;;;;;;;;;;6145997;23;20024;-59
2021/10/18 13:19:47;;;;;;;13.57;11.23;;;;;;;;;;6148278;23;20016;-59
2021/10/18 13:22:13;;;;;;;13.85;11.05;;;;;;;;;;6147812;23;20108;-58
2021/10/18 13:24:40;;;;;;;14.67;11.07;;;;;;;;;;6146760;23;20071;-59
2021/10/18 13:27:05;;;;;;;13.80;10.40;;;;;;;;;;6146854;23;20029;-59
2021/10/18 13:29:33;;;;;;;15.00;10.82;;;;;;;;;;6121580;23;20009;-59
2021/10/18 13:32:02;;;;;;;15.40;10.30;;;;;;;;;;6147075;23;20471;-59
2021/10/18 13:34:28;;;;;;;14.55;10.50;;;;;;;;;;6145718;23;20061;-58
2021/10/18 13:36:56;;;;;;;14.85;11.05;;;;;;;;;;6148047;23;20439;-59
2021/10/18 13:39:21;;;;;;;14.88;11.00;;;;;;;;;;6147104;23;20386;-59
2021/10/18 13:41:46;;;;;;;15.13;10.77;;;;;;;;;;6148544;23;20029;-59
2021/10/18 13:44:12;;;;;;;18.63;10.45;;;;;;;;;;6146315;23;20439;-58
2021/10/18 13:46:40;;;;;;;14.60;10.32;;;;;;;;;;6147473;23;20005;-59
2021/10/18 13:49:06;;;;;;;14.00;10.90;;;;;;;;;;6146548;23;20411;-58
2021/10/18 13:51:32;;;;;;;13.73;10.33;;;;;;;;;;6145328;23;20056;-59
2021/10/18 13:53:57;;;;;;;14.13;10.35;;;;;;;;;;6147869;23;20660;-58
2021/10/18 13:56:23;;;;;;;16.27;11.05;;;;;;;;;;6148442;23;20458;-59
2021/10/18 13:58:48;;;;;;;13.93;10.65;;;;;;;;;;6147982;23;20018;-58
2021/10/18 14:01:15;;;;;;;12.93;9.85;;;;;;;;;;6148521;23;20080;-58
2021/10/18 14:03:40;;;;;;;14.15;11.20;;;;;;;;;;6148440;23;20016;-59
2021/10/18 14:06:07;;;;;;;13.40;10.07;;;;;;;;;;6147534;23;20324;-59
2021/10/18 14:08:33;;;;;;;17.58;10.75;;;;;;;;;;6146472;23;20096;-58
2021/10/18 14:10:59;;;;;;;14.70;10.27;;;;;;;;;;6121497;23;20005;-59
2021/10/18 14:13:24;;;;;;;14.45;10.07;;;;;;;;;;6146234;23;20009;-59
2021/10/18 14:15:49;;;;;;;14.88;10.40;;;;;;;;;;6147288;23;20006;-58
2021/10/18 14:18:15;;;;;;;14.80;10.75;;;;;;;;;;6147085;23;20005;-58
2021/10/18 14:20:41;;;;;;;13.65;10.40;;;;;;;;;;6120633;23;20005;-58
2021/10/18 14:23:07;;;;;;;13.27;10.47;;;;;;;;;;6143880;23;20012;-59
2021/10/18 14:25:33;;;;;;;13.57;9.90;;;;;;;;;;6118934;23;20010;-59
2021/10/18 14:27:58;;;;;;;14.77;10.55;;;;;;;;;;6119330;23;20083;-59
2021/10/18 14:30:24;;;;;;;14.90;10.98;;;;;;;;;;6146272;23;20015;-59
2021/10/18 14:32:53;;;;;;;16.52;10.88;;;;;;;;;;6120082;23;20385;-58
2021/10/18 14:35:20;;;;;;;16.20;11.82;;;;;;;;;;6145848;23;20002;-58
2021/10/18 14:37:46;;;;;;;;;;;;;;;;;;6146968;23;20634;-61
2021/10/18 14:40:12;;;;;;;13.30;10.73;;;;;;;;;;6121183;23;19963;-59
2021/10/18 14:42:38;;;;;;;14.25;10.55;;;;;;;;;;6147889;23;20869;-60
2021/10/18 14:45:04;;;;;;;14.07;10.57;;;;;;;;;;6148109;23;20059;-58
2021/10/18 14:47:34;;;;;;;17.17;10.93;;;;;;;;;;6147625;23;20009;-58
2021/10/18 14:49:59;;;;;;;14.77;11.43;;;;;;;;;;6121976;23;20363;-59
2021/10/18 14:52:24;;;;;;;16.60;11.25;;;;;;;;;;6146453;23;20005;-59
2021/10/18 14:54:50;;;;;;;14.27;10.82;;;;;;;;;;6144600;23;20056;-59
2021/10/18 14:57:15;;;;;;;16.08;11.05;;;;;;;;;;6147460;23;20016;-58
2021/10/18 14:59:41;;;;;;;15.98;11.60;;;;;;;;;;6147333;23;20032;-59
2021/10/18 15:02:10;;;;;;;14.45;10.75;;;;;;;;;;6121520;23;20040;-59
2021/10/18 15:04:36;;;;;;;15.23;10.57;;;;;;;;;;6146484;23;20327;-58
2021/10/18 15:07:04;;;;;;;14.75;10.85;;;;;;;;;;6121810;23;20016;-59
2021/10/18 15:09:29;;;;;;;15.68;11.70;;;;;;;;;;6144867;23;20153;-59
2021/10/18 15:11:56;;;;;;;17.70;12.23;;;;;;;;;;6146003;23;20085;-59
2021/10/18 15:14:21;;;;;;;14.95;11.25;;;;;;;;;;6145707;23;20493;-58
2021/10/18 15:16:47;;;;;;;15.57;11.50;;;;;;;;;;6123359;23;20006;-58
2021/10/18 15:19:14;;;;;;;15.77;11.25;;;;;;;;;;6148988;23;20399;-59
2021/10/18 15:21:47;;;;;;;15.87;11.80;;;;;;;;;;6122860;23;20001;-59
2021/10/18 15:24:14;;;;;;;21.42;11.65;;;;;;;;;;6147531;23;20009;-58
2021/10/18 15:26:40;;;;;;;17.67;11.63;;;;;;;;;;6144365;23;20005;-59
2021/10/18 15:29:05;;;;;;;15.02;11.40;;;;;;;;;;6146037;23;20008;-59
2021/10/18 15:31:31;;;;;;;17.02;12.57;;;;;;;;;;6145755;23;20005;-58
2021/10/18 15:33:58;;;;;;;16.27;11.65;;;;;;;;;;6146928;23;20072;-58
2021/10/18 15:36:24;;;;;;;21.80;14.70;;;;;;;;;;6146568;23;20447;-60
2021/10/18 15:38:49;;;;;;;16.58;11.95;;;;;;;;;;6146357;23;20032;-58
2021/10/18 15:41:15;;;;;;;18.98;12.75;;;;;;;;;;6146540;23;20020;-58
2021/10/18 15:43:40;;;;;;;16.55;12.15;;;;;;;;;;6148426;23;20001;-59